Traveller — PHAM — position and weather

sailwx.info

Track history (hours):
 
Tides and Currents Weather Stations Pressure Air Temp Water Temp Dewpoint Dewpoint Depression Visibility Wind Speed Wind Dir Waves Ship Positions

Traveller

Last reported at 2015-Jul-04 11:29 UTC. Time now 2015-Jul-04 15:22 UTC.
Position N 50°35' E 000°28'.

Length 101 m; beam 20 m.

Type: Ship. MMSI: 246111000.

Date/timePositionNaut miles runAvg speedWind from/ knotsBaromVisibWave heightAir tempDewpointWater temp
2015-Jul-04 11:29N 50°35' E 000°28'1112.2
2015-Jul-04 10:33N 50°41' E 000°44'1313.2
2015-Jul-04 09:33N 50°49' E 001°00'1515.4
2015-Jul-04 08:33N 50°60' E 001°18'1616.5
2015-Jul-04 07:33N 51°10' E 001°38'1514.6
2015-Jul-04 06:33N 51°22' E 001°52'1313.4
2015-Jul-04 05:33N 51°33' E 002°04'1512.9
2015-Jul-04 04:23N 51°44' E 002°20'1012.4
2015-Jul-04 03:33N 51°52' E 002°31'1312.5
2015-Jul-04 02:33N 52°01' E 002°45'1413.5
2015-Jul-04 01:33N 52°12' E 002°59'1514.8
2015-Jul-04 00:33N 52°24' E 003°13'1615.7
2015-Jul-03 23:33N 52°36' E 003°28'1616.1
2015-Jul-03 22:33N 52°48' E 003°46'1616.0
2015-Jul-03 21:34N 52°60' E 004°04'1515.1
2015-Jul-03 20:34N 53°10' E 004°23'1414.2
2015-Jul-03 19:34N 53°23' E 004°32'1413.8
2015-Jul-03 18:33N 53°36' E 004°41'1414.1
2015-Jul-03 17:33N 53°50' E 004°47'1414.5
2015-Jul-03 16:34N 54°02' E 004°58'1615.3
2015-Jul-03 15:32N 54°16' E 005°11'1615.3
2015-Jul-03 14:29N 54°30' E 005°24'7116.3
2015-Jul-03 10:09N 55°31' E 006°28'14313.4
2015-Jul-02 23:28N 57°28' E 008°55'3014.2
2015-Jul-02 21:21N 57°44' E 009°44'1114.4
2015-Jul-02 20:34N 57°47' E 010°04'1414.5
2015-Jul-02 19:34N 57°50' E 010°31'1413.9
2015-Jul-02 18:34N 57°46' E 010°56'1515.2
2015-Jul-02 17:33N 57°34' E 011°15'1515.0
2015-Jul-02 16:34N 57°22' E 011°30'1515.1
2015-Jul-02 15:34N 57°08' E 011°40'1515.0
2015-Jul-02 14:33N 56°54' E 011°49'1414.1
2015-Jul-02 13:33N 56°39' E 011°48'64 6.3
2015-Jul-02 03:23N 55°40' E 011°05'0 0.0
2015-Jul-01 07:23N 55°40' E 011°05'  
2015-Jun-25 00:00N 56°18' E 011°24'1518.4 999 / 21015.0 5.4 1.012.0 8.5
2015-Jun-24 23:10N 56°31' E 011°37'712.1
2015-Jun-24 22:33N 56°38' E 011°44'1111.0
2015-Jun-24 21:33N 56°48' E 011°50'1212.3
2015-Jun-24 20:33N 56°60' E 011°42'1212.1
2015-Jun-24 19:33N 57°11' E 011°35'1212.2
2015-Jun-24 18:33N 57°23' E 011°27'1211.9
2015-Jun-24 17:33N 57°32' E 011°14'1312.5
2015-Jun-24 16:33N 57°41' E 010°57'  
Track history (hours):
 
Tides and Currents Weather Stations Pressure Air Temp Water Temp Dewpoint Dewpoint Depression Visibility Wind Speed Wind Dir Waves Ship Positions

Traveller

Last reported at 2015-Jul-04 11:29 UTC. Time now 2015-Jul-04 15:22 UTC.
Position N 50°35' E 000°28'.

Length 101 m; beam 20 m.

Type: Ship. MMSI: 246111000.

Date/timePositionNaut miles runAvg speedWind from/ knotsBaromVisibWave heightAir tempDewpointWater temp
2015-Jul-04 11:29N 50°35' E 000°28'1112.2
2015-Jul-04 10:33N 50°41' E 000°44'1313.2
2015-Jul-04 09:33N 50°49' E 001°00'1515.4
2015-Jul-04 08:33N 50°60' E 001°18'1616.5
2015-Jul-04 07:33N 51°10' E 001°38'1514.6
2015-Jul-04 06:33N 51°22' E 001°52'1313.4
2015-Jul-04 05:33N 51°33' E 002°04'1512.9
2015-Jul-04 04:23N 51°44' E 002°20'1012.4
2015-Jul-04 03:33N 51°52' E 002°31'1312.5
2015-Jul-04 02:33N 52°01' E 002°45'1413.5
2015-Jul-04 01:33N 52°12' E 002°59'1514.8
2015-Jul-04 00:33N 52°24' E 003°13'1615.7
2015-Jul-03 23:33N 52°36' E 003°28'1616.1
2015-Jul-03 22:33N 52°48' E 003°46'1616.0
2015-Jul-03 21:34N 52°60' E 004°04'1515.1
2015-Jul-03 20:34N 53°10' E 004°23'1414.2
2015-Jul-03 19:34N 53°23' E 004°32'1413.8
2015-Jul-03 18:33N 53°36' E 004°41'1414.1
2015-Jul-03 17:33N 53°50' E 004°47'1414.5
2015-Jul-03 16:34N 54°02' E 004°58'1615.3
2015-Jul-03 15:32N 54°16' E 005°11'1615.3
2015-Jul-03 14:29N 54°30' E 005°24'7116.3
2015-Jul-03 10:09N 55°31' E 006°28'14313.4
2015-Jul-02 23:28N 57°28' E 008°55'3014.2
2015-Jul-02 21:21N 57°44' E 009°44'1114.4
2015-Jul-02 20:34N 57°47' E 010°04'1414.5
2015-Jul-02 19:34N 57°50' E 010°31'1413.9
2015-Jul-02 18:34N 57°46' E 010°56'1515.2
2015-Jul-02 17:33N 57°34' E 011°15'1515.0
2015-Jul-02 16:34N 57°22' E 011°30'1515.1
2015-Jul-02 15:34N 57°08' E 011°40'1515.0
2015-Jul-02 14:33N 56°54' E 011°49'1414.1
2015-Jul-02 13:33N 56°39' E 011°48'64 6.3
2015-Jul-02 03:23N 55°40' E 011°05'0 0.0
2015-Jul-01 07:23N 55°40' E 011°05'  
2015-Jun-25 00:00N 56°18' E 011°24'1518.4 999 / 21015.0 5.4 1.012.0 8.5
2015-Jun-24 23:10N 56°31' E 011°37'712.1
2015-Jun-24 22:33N 56°38' E 011°44'1111.0
2015-Jun-24 21:33N 56°48' E 011°50'1212.3
2015-Jun-24 20:33N 56°60' E 011°42'1212.1
2015-Jun-24 19:33N 57°11' E 011°35'1212.2
2015-Jun-24 18:33N 57°23' E 011°27'1211.9
2015-Jun-24 17:33N 57°32' E 011°14'1312.5
2015-Jun-24 16:33N 57°41' E 010°57'  

Dump ship's entire track history